Time;durP1;ratioP1;P1;durP2;ratioP2;P2;SDS_P1;SDS_P2;PMS_P1;PMS_P2;Temp;Humidity;BMP_temperature;BMP_pressure;BME280_temperature;BME280_humidity;BME280_pressure;Samples;Min_cycle;Max_cycle;Signal;HPM_P1;HPM_P2
2022/07/18 00:01:45;;;;;;;;;8.00;8.00;;;;;26.64;34.31;101587.75;5032149;28;46381;-36
2022/07/18 00:04:11;;;;;;;;;6.25;6.25;;;;;26.63;34.33;101582.50;5028401;28;68359;-36
2022/07/18 00:06:36;;;;;;;;;8.50;7.00;;;;;26.63;34.45;101580.69;5036503;28;45483;-36
2022/07/18 00:09:03;;;;;;;;;8.00;7.00;;;;;26.63;34.42;101578.00;5027648;28;56276;-36
2022/07/18 00:11:28;;;;;;;;;8.00;6.00;;;;;26.63;34.01;101574.44;5030488;28;46016;-36
2022/07/18 00:13:53;;;;;;;;;6.50;6.50;;;;;26.62;33.38;101568.22;5031022;28;73450;-36
2022/07/18 00:16:19;;;;;;;;;7.75;7.25;;;;;26.62;33.33;101580.81;5033673;28;45478;-36
2022/07/18 00:18:44;;;;;;;;;8.00;6.00;;;;;26.62;33.58;101580.81;5028508;28;57141;-36
2022/07/18 00:21:10;;;;;;;;;8.25;6.75;;;;;26.60;33.12;101572.00;5016324;28;47162;-36
2022/07/18 00:23:35;;;;;;;;;7.25;7.25;;;;;26.61;33.67;101573.69;5034483;28;52359;-36
2022/07/18 00:26:01;;;;;;;;;10.00;7.00;;;;;26.59;33.10;101560.38;5032931;28;45399;-36
2022/07/18 00:28:26;;;;;;;;;7.50;5.25;;;;;26.60;33.39;101562.09;5033204;28;50329;-36
2022/07/18 00:30:52;;;;;;;;;6.75;6.25;;;;;26.61;33.39;101565.63;5026666;28;45480;-36
2022/07/18 00:33:17;;;;;;;;;7.00;6.25;;;;;26.60;33.17;101569.31;5032122;28;71976;-36
2022/07/18 00:35:43;;;;;;;;;6.50;6.25;;;;;26.60;32.87;101572.00;5034594;28;61612;-36
2022/07/18 00:38:08;;;;;;;;;7.25;6.75;;;;;26.59;33.40;101575.66;5028101;28;45439;-36
2022/07/18 00:40:33;;;;;;;;;7.25;5.75;;;;;26.58;32.97;101566.75;5030326;28;48196;-36
2022/07/18 00:42:59;;;;;;;;;8.50;7.00;;;;;26.58;32.98;101563.19;5029099;28;55143;-36
2022/07/18 00:45:24;;;;;;;;;6.75;6.75;;;;;26.57;32.86;101562.34;5029357;28;64088;-36
2022/07/18 00:47:53;;;;;;;;;10.00;6.75;;;;;26.57;32.68;101556.97;5031848;28;45433;-36
2022/07/18 00:50:19;;;;;;;;;7.75;5.75;;;;;26.57;33.29;101559.66;5032619;28;45580;-36
2022/07/18 00:52:46;;;;;;;;;9.50;8.50;;;;;26.57;32.88;101562.34;5029691;28;45343;-36
2022/07/18 00:55:11;;;;;;;;;9.75;7.50;;;;;26.57;32.90;101554.28;5034319;28;45488;-36
2022/07/18 00:57:37;;;;;;;;;8.00;7.00;;;;;26.58;32.95;101563.19;5033036;28;63697;-36
2022/07/18 01:02:50;;;;;;;;;7.50;7.00;;;;;26.56;33.06;101557.97;5034042;28;45694;-36
2022/07/18 01:05:16;;;;;;;;;11.00;6.75;;;;;26.56;32.83;101560.66;5024190;28;57800;-36
2022/07/18 01:07:41;;;;;;;;;8.25;7.00;;;;;26.57;32.79;101554.28;5048472;28;45463;-36
2022/07/18 01:10:07;;;;;;;;;8.75;5.00;;;;;26.57;32.88;101553.44;5032688;28;74227;-36
2022/07/18 01:12:33;;;;;;;;;7.25;5.25;;;;;26.57;32.45;101553.44;5032420;28;46386;-37
2022/07/18 01:14:58;;;;;;;;;12.00;12.00;;;;;26.57;32.91;101554.28;5029671;28;57971;-36
2022/07/18 01:17:24;;;;;;;;;22.25;18.25;;;;;26.56;32.58;101552.59;5031538;28;45478;-37
2022/07/18 01:19:49;;;;;;;;;21.00;17.00;;;;;26.55;32.33;101553.56;5025020;28;75634;-36
2022/07/18 01:22:18;;;;;;;;;6.50;6.50;;;;;26.57;32.38;101556.13;5033941;28;56042;-37
2022/07/18 01:24:43;;;;;;;;;15.50;13.50;;;;;26.55;32.49;101556.25;5027742;28;45422;-37
2022/07/18 01:27:10;;;;;;;;;14.50;10.50;;;;;26.53;32.56;101548.31;5031164;28;45469;-37
2022/07/18 01:29:35;;;;;;;;;10.75;8.25;;;;;26.54;32.47;101559.91;5027311;28;45339;-36
2022/07/18 01:32:05;;;;;;;;;12.00;12.00;;;;;26.55;32.13;101558.09;5033635;28;49958;-36
2022/07/18 01:34:31;;;;;;;;;11.00;9.25;;;;;26.55;32.46;101558.94;5026919;28;45486;-37
2022/07/18 01:36:56;;;;;;;;;14.25;11.00;;;;;26.55;32.29;101571.50;5024593;28;48822;-37
2022/07/18 01:39:22;;;;;;;;;16.75;14.50;;;;;26.56;32.18;101570.50;5025723;28;69939;-36
2022/07/18 01:41:55;;;;;;;;;14.00;13.25;;;;;26.55;32.06;101564.31;5041610;28;46004;-37
2022/07/18 01:44:20;;;;;;;;;13.00;13.00;;;;;26.53;32.06;101559.06;5027006;28;45516;-36
2022/07/18 01:46:45;;;;;;;;;14.75;10.00;;;;;26.53;32.34;101558.22;5028983;28;69398;-37
2022/07/18 01:49:11;;;;;;;;;13.75;8.00;;;;;26.55;32.19;101547.34;5025605;28;66733;-36
2022/07/18 01:51:36;;;;;;;;;14.00;12.25;;;;;26.54;32.21;101549.16;5031389;28;62412;-37
2022/07/18 01:54:01;;;;;;;;;12.00;10.00;;;;;26.52;32.50;101543.06;5025511;28;64127;-37
2022/07/18 01:56:27;;;;;;;;;9.00;9.00;;;;;26.53;32.22;101550.16;5031849;28;45328;-36
2022/07/18 01:58:52;;;;;;;;;9.50;9.00;;;;;26.53;32.01;101540.25;5028070;28;46196;-37
2022/07/18 02:01:18;;;;;;;;;13.75;8.25;;;;;26.54;32.26;101541.09;5035078;28;45288;-37
2022/07/18 02:03:43;;;;;;;;;8.75;8.00;;;;;26.53;32.23;101532.22;5035836;28;58377;-36
2022/07/18 02:06:08;;;;;;;;;12.00;9.75;;;;;26.53;32.43;101526.00;5026507;28;45612;-37
2022/07/18 02:08:34;;;;;;;;;14.00;12.25;;;;;26.49;31.89;101514.66;5031608;28;69674;-37
2022/07/18 02:10:59;;;;;;;;;20.75;17.75;;;;;26.53;32.29;101518.78;5029108;28;68420;-37
2022/07/18 02:13:24;;;;;;;;;18.00;14.75;;;;;26.52;32.01;101518.91;5028951;28;64692;-36
2022/07/18 02:15:50;;;;;;;;;18.75;14.00;;;;;26.52;31.99;101521.59;5044440;28;45378;-36
2022/07/18 02:18:15;;;;;;;;;15.50;12.75;;;;;26.51;31.92;101519.91;5024990;28;45560;-37
2022/07/18 02:20:41;;;;;;;;;25.25;23.50;;;;;26.51;31.64;101523.44;5030133;28;62248;-36
2022/07/18 02:23:07;;;;;;;;;28.50;25.00;;;;;26.51;31.92;101520.75;5012767;28;45412;-37
2022/07/18 02:25:33;;;;;;;;;24.75;21.25;;;;;26.51;31.73;101533.34;5032746;28;45527;-36
2022/07/18 02:27:59;;;;;;;;;19.25;17.00;;;;;26.50;32.07;101531.63;5022874;28;45439;-37
2022/07/18 02:30:24;;;;;;;;;16.25;13.25;;;;;26.49;32.03;101533.44;5030844;28;71389;-36
2022/07/18 02:32:49;;;;;;;;;18.75;18.00;;;;;26.49;31.72;101529.94;5034150;28;45284;-37
2022/07/18 02:35:15;;;;;;;;;14.00;11.75;;;;;26.50;31.51;101531.63;5033715;28;45301;-36
2022/07/18 02:37:41;;;;;;;;;18.75;14.00;;;;;26.51;31.66;101527.97;5046102;28;47032;-36
2022/07/18 02:40:09;;;;;;;;;3.50;0.25;;;;;26.49;31.94;101528.09;5034226;28;45486;-37
2022/07/18 02:42:34;;;;;;;;;14.75;11.25;;;;;26.50;31.91;101523.56;5034312;28;45508;-37
2022/07/18 02:44:59;;;;;;;;;13.75;10.25;;;;;26.48;31.71;101528.22;5025280;28;50386;-36
2022/07/18 02:47:25;;;;;;;;;14.25;14.25;;;;;26.49;31.59;101533.44;5032613;28;54001;-37
2022/07/18 02:49:50;;;;;;;;;15.25;13.00;;;;;26.48;31.97;101534.41;5031610;28;73344;-37
2022/07/18 02:52:16;;;;;;;;;13.00;12.50;;;;;26.48;31.72;101537.09;5029616;28;55779;-37
2022/07/18 02:54:41;;;;;;;;;16.50;12.75;;;;;26.48;31.87;101539.78;5032590;28;45582;-36
2022/07/18 02:57:07;;;;;;;;;18.00;12.25;;;;;26.49;31.50;101541.50;5033009;28;46887;-37
2022/07/18 02:59:32;;;;;;;;;14.50;10.50;;;;;26.48;31.46;101541.63;5033160;28;45546;-36
2022/07/18 03:01:59;;;;;;;;;12.00;9.00;;;;;26.48;31.67;101538.94;5037435;28;45755;-37
2022/07/18 03:04:24;;;;;;;;;12.25;9.25;;;;;26.49;31.93;101540.66;5014728;28;45487;-37
2022/07/18 03:06:50;;;;;;;;;9.50;9.50;;;;;26.47;31.92;101538.09;5035399;28;47202;-37
2022/07/18 03:09:16;;;;;;;;;9.50;9.00;;;;;26.46;31.61;101541.75;5027611;28;45771;-40
2022/07/18 03:11:42;;;;;;;;;12.75;9.75;;;;;26.46;31.93;101539.06;5033863;28;46505;-36
2022/07/18 03:14:08;;;;;;;;;9.00;7.75;;;;;26.46;31.79;101536.38;5032126;28;53398;-37
2022/07/18 03:16:33;;;;;;;;;9.00;8.00;;;;;26.45;31.80;101541.88;5033956;28;47174;-37
2022/07/18 03:18:59;;;;;;;;;10.25;8.00;;;;;26.44;31.45;101535.66;5033940;28;46066;-37
2022/07/18 03:21:24;;;;;;;;;8.25;8.00;;;;;26.45;31.80;101525.75;5030967;28;45481;-37
2022/07/18 03:23:50;;;;;;;;;11.25;10.00;;;;;26.43;31.42;101519.69;5028744;28;45397;-37
2022/07/18 03:26:15;;;;;;;;;9.50;8.00;;;;;26.43;31.66;101514.31;5028399;28;46072;-37
2022/07/18 03:28:40;;;;;;;;;10.00;7.00;;;;;26.43;31.32;101520.53;5035303;28;45430;-38
2022/07/18 03:31:06;;;;;;;;;11.00;7.25;;;;;26.43;31.52;101523.19;5025944;28;49499;-39
2022/07/18 03:33:31;;;;;;;;;12.00;8.50;;;;;26.42;31.53;101520.63;5027631;28;45321;-37
2022/07/18 03:35:57;;;;;;;;;9.75;7.25;;;;;26.41;31.45;101519.78;5030732;28;45960;-37
2022/07/18 03:38:22;;;;;;;;;11.50;8.25;;;;;26.41;31.89;101516.28;5030316;28;45459;-37
2022/07/18 03:40:48;;;;;;;;;11.00;6.00;;;;;26.40;31.48;101504.69;5027567;28;66593;-37
2022/07/18 03:43:13;;;;;;;;;8.50;8.50;;;;;26.41;31.79;101505.53;5030273;28;45589;-37
2022/07/18 03:45:38;;;;;;;;;8.00;7.00;;;;;26.39;31.29;101510.19;5033604;28;46067;-36
2022/07/18 03:48:04;;;;;;;;;8.00;8.00;;;;;26.39;31.62;101502.13;5037334;28;57991;-37
2022/07/18 03:50:30;;;;;;;;;8.50;7.50;;;;;26.39;31.56;101505.66;5033430;28;45307;-37
2022/07/18 03:52:55;;;;;;;;;7.75;7.00;;;;;26.38;31.47;101503.09;5034356;28;45432;-37
2022/07/18 03:55:21;;;;;;;;;11.25;9.25;;;;;26.39;31.83;101512.88;5031123;28;47053;-37
2022/07/18 03:57:46;;;;;;;;;9.50;9.00;;;;;26.39;31.76;101512.88;5037086;28;45498;-38
2022/07/18 04:00:13;;;;;;;;;6.50;6.50;;;;;26.37;31.37;101515.66;5034812;28;66103;-37
2022/07/18 04:02:43;;;;;;;;;10.50;7.75;;;;;26.36;31.34;101513.94;5036858;28;46253;-37
2022/07/18 04:05:09;;;;;;;;;7.00;6.00;;;;;26.37;31.36;101512.13;5033566;28;45441;-37
2022/07/18 04:07:34;;;;;;;;;8.25;7.00;;;;;26.37;31.34;101515.66;5035187;28;45561;-38
2022/07/18 04:10:00;;;;;;;;;10.50;8.00;;;;;26.37;31.57;101525.56;5036144;28;62154;-37
2022/07/18 04:12:25;;;;;;;;;9.50;9.50;;;;;26.37;31.50;101526.41;5038186;28;45385;-37
2022/07/18 04:14:51;;;;;;;;;9.00;7.25;;;;;26.36;31.73;101526.53;5030631;28;45684;-37
2022/07/18 04:17:17;;;;;;;;;7.75;7.25;;;;;26.37;31.69;101525.56;5036325;28;56637;-37
2022/07/18 04:19:43;;;;;;;;;8.25;7.75;;;;;26.36;31.46;101535.41;5037818;28;45515;-37
2022/07/18 04:22:08;;;;;;;;;10.50;6.00;;;;;26.35;31.65;101536.41;5035217;28;70392;-37
2022/07/18 04:24:33;;;;;;;;;10.00;8.00;;;;;26.36;31.25;101534.56;5030821;28;75863;-37
2022/07/18 04:26:59;;;;;;;;;11.00;9.25;;;;;26.36;31.46;101534.56;5036279;28;74546;-37
2022/07/18 04:29:24;;;;;;;;;12.00;7.50;;;;;26.33;31.63;101523.13;5036682;28;45326;-37
2022/07/18 04:31:50;;;;;;;;;11.75;8.00;;;;;26.34;31.51;101516.75;5035256;28;45405;-37
2022/07/18 04:34:15;;;;;;;;;11.00;9.50;;;;;26.35;31.59;101504.22;5031260;28;49759;-37
2022/07/18 04:36:40;;;;;;;;;7.00;7.00;;;;;26.34;31.30;101494.44;5034352;28;67395;-37
2022/07/18 04:39:05;;;;;;;;;11.00;7.50;;;;;26.32;31.18;101478.47;5026748;28;59817;-37
2022/07/18 04:41:31;;;;;;;;;11.50;9.75;;;;;26.32;31.47;101472.25;5025269;28;45411;-37
2022/07/18 04:43:56;;;;;;;;;11.00;8.00;;;;;26.32;31.58;101472.25;5029827;28;46100;-36
2022/07/18 04:46:21;;;;;;;;;9.25;8.50;;;;;26.31;31.52;101476.78;5035771;28;71491;-37
2022/07/18 04:48:47;;;;;;;;;12.50;6.75;;;;;26.31;31.61;101484.81;5028107;28;68272;-36
2022/07/18 04:51:13;;;;;;;;;8.50;8.00;;;;;26.31;31.45;101486.63;5028220;28;45417;-36
2022/07/18 04:53:38;;;;;;;;;8.25;8.25;;;;;26.31;31.38;101483.94;5026063;28;46589;-36
2022/07/18 04:56:04;;;;;;;;;8.25;8.25;;;;;26.30;31.39;101485.78;5034082;28;46053;-36
2022/07/18 04:58:29;;;;;;;;;7.00;6.00;;;;;26.29;31.52;101470.69;5031568;28;45409;-37
2022/07/18 05:00:55;;;;;;;;;7.50;7.00;;;;;26.29;31.67;101464.44;5035532;28;45542;-36
2022/07/18 05:03:21;;;;;;;;;9.25;7.00;;;;;26.29;31.24;101454.59;5034469;28;45548;-36
2022/07/18 05:05:46;;;;;;;;;11.00;7.50;;;;;26.29;31.59;101453.72;5035373;28;57342;-36
2022/07/18 05:08:13;;;;;;;;;9.50;7.25;;;;;26.29;31.56;101456.41;5012085;28;63292;-36
2022/07/18 05:10:39;;;;;;;;;6.50;6.50;;;;;26.29;31.62;101451.03;5033161;28;45514;-36
2022/07/18 05:13:05;;;;;;;;;8.75;6.00;;;;;26.29;31.41;101451.03;5033505;28;45389;-36
2022/07/18 05:15:30;;;;;;;;;6.25;5.75;;;;;26.28;31.71;101449.34;5015591;28;45415;-37
2022/07/18 05:17:55;;;;;;;;;5.50;3.75;;;;;26.27;31.13;101432.38;5033623;28;46901;-36
2022/07/18 05:20:23;;;;;;;;;7.25;4.75;;;;;26.28;31.41;101431.41;5030338;28;45414;-36
2022/07/18 05:22:51;;;;;;;;;6.75;5.75;;;;;26.29;31.50;101419.69;5028403;28;45441;-37
2022/07/18 05:25:17;;;;;;;;;5.00;4.25;;;;;26.29;31.20;101421.50;5031119;28;46126;-37
2022/07/18 05:27:42;;;;;;;;;4.25;4.25;;;;;26.29;30.97;101421.50;5032423;28;45560;-37
2022/07/18 05:30:10;;;;;;;;;3.00;3.00;;;;;26.28;30.84;101436.78;5030525;28;45564;-37
2022/07/18 05:32:38;;;;;;;;;4.50;4.00;;;;;26.28;31.03;101458.22;5036590;28;47115;-37
2022/07/18 05:35:03;;;;;;;;;2.75;2.75;;;;;26.27;30.85;101477.97;5031685;28;45401;-37
2022/07/18 05:37:29;;;;;;;;;3.50;3.50;;;;;26.28;30.53;101492.28;5035761;28;45452;-37
2022/07/18 05:39:54;;;;;;;;;2.25;1.50;;;;;26.28;30.71;101495.81;5029761;28;45484;-37
2022/07/18 05:42:20;;;;;;;;;4.00;4.00;;;;;26.27;30.78;101499.44;5031962;28;45393;-38
2022/07/18 05:44:45;;;;;;;;;6.00;5.00;;;;;26.25;30.95;101490.69;5031941;28;45478;-37
2022/07/18 05:47:11;;;;;;;;;4.00;2.50;;;;;26.30;30.86;101496.53;5033167;28;45439;-37
2022/07/18 05:49:36;;;;;;;;;3.00;2.00;;;;;26.31;31.08;101497.38;5032650;28;51578;-37
2022/07/18 05:52:02;;;;;;;;;6.75;4.00;;;;;26.32;31.13;101497.25;5035130;28;45297;-38
2022/07/18 05:54:27;;;;;;;;;4.75;4.00;;;;;26.34;31.15;101495.28;5026229;28;45511;-37
2022/07/18 05:56:53;;;;;;;;;7.25;5.00;;;;;26.34;31.43;101494.44;5028846;28;58028;-37
2022/07/18 05:59:19;;;;;;;;;9.25;5.00;;;;;26.36;31.02;101492.47;5025555;28;45428;-37
2022/07/18 06:01:45;;;;;;;;;6.00;6.00;;;;;26.37;31.31;101490.66;5037068;28;45709;-37
2022/07/18 06:04:11;;;;;;;;;13.25;8.25;;;;;26.36;31.49;101491.63;5028631;28;45337;-37
2022/07/18 06:06:37;;;;;;;;;7.75;7.25;;;;;26.37;31.30;101480.78;5035139;28;45450;-37
2022/07/18 06:09:03;;;;;;;;;9.25;7.50;;;;;26.37;31.19;101483.47;5024899;28;45664;-37
2022/07/18 06:11:28;;;;;;;;;9.75;7.00;;;;;26.39;31.63;101488.72;5035698;28;45663;-37
2022/07/18 06:13:54;;;;;;;;;11.25;8.75;;;;;26.39;31.32;101481.50;5033486;28;45406;-37
2022/07/18 06:16:19;;;;;;;;;8.00;8.00;;;;;26.41;31.35;101481.38;5030057;28;61046;-43
2022/07/18 06:18:44;;;;;;;;;9.00;7.75;;;;;26.43;31.69;101479.41;5028426;28;71125;-37
2022/07/18 06:21:10;;;;;;;;;9.75;8.50;;;;;26.42;31.21;101478.56;5028787;28;45348;-37
2022/07/18 06:23:35;;;;;;;;;14.50;10.25;;;;;26.46;31.61;101484.53;5026268;28;46816;-37
2022/07/18 06:26:01;;;;;;;;;8.50;6.75;;;;;26.46;32.30;101479.16;5032283;28;69448;-37
2022/07/18 06:28:28;;;;;;;;;8.25;6.00;;;;;26.48;32.24;101486.09;5037165;28;45549;-37
2022/07/18 06:30:53;;;;;;;;;9.25;8.00;;;;;26.51;32.38;101482.31;5030127;28;46076;-37
2022/07/18 06:33:19;;;;;;;;;12.25;7.25;;;;;26.51;32.51;101482.31;5022302;28;45478;-37
2022/07/18 06:35:46;;;;;;;;;8.75;7.50;;;;;26.52;32.55;101490.25;5030848;28;63596;-37
2022/07/18 06:38:11;;;;;;;;;7.25;7.25;;;;;26.51;31.45;101491.22;5049505;28;45629;-38
2022/07/18 06:40:37;;;;;;;;;8.00;8.00;;;;;26.45;31.34;101482.81;5033346;28;45539;-37
2022/07/18 06:43:02;;;;;;;;;11.00;8.75;;;;;26.40;31.15;101490.41;5051242;28;67314;-37
2022/07/18 06:45:27;;;;;;;;;11.00;7.75;;;;;26.38;31.43;101492.34;5027176;28;58777;-38
2022/07/18 06:47:53;;;;;;;;;9.00;8.25;;;;;26.34;31.35;101492.59;5022842;28;45620;-37
2022/07/18 06:50:18;;;;;;;;;13.00;7.50;;;;;26.34;31.58;101491.75;5026958;28;70656;-37
2022/07/18 06:52:44;;;;;;;;;11.25;8.50;;;;;26.33;31.70;101490.06;5027692;28;55654;-37
2022/07/18 06:55:12;;;;;;;;;10.00;6.75;;;;;26.32;31.39;101493.72;5032259;28;45524;-37
2022/07/18 06:57:37;;;;;;;;;8.75;7.25;;;;;26.32;31.44;101499.09;5027599;28;45349;-37
2022/07/18 07:00:04;;;;;;;;;54.00;42.00;;;;;26.31;31.22;101495.56;5022278;28;45417;-37
2022/07/18 07:02:29;;;;;;;;;50.75;38.25;;;;;26.29;31.36;101494.84;5022778;28;45375;-37
2022/07/18 07:04:55;;;;;;;;;35.75;30.00;;;;;26.29;30.91;101496.66;5028156;28;56494;-37
2022/07/18 07:07:20;;;;;;;;;19.50;16.25;;;;;26.30;31.46;101498.38;5029099;28;73270;-37
2022/07/18 07:09:46;;;;;;;;;13.75;11.50;;;;;26.31;31.07;101495.56;5028535;28;46653;-37
2022/07/18 07:12:11;;;;;;;;;12.50;12.50;;;;;26.32;31.44;101502.63;5033901;28;56024;-37
2022/07/18 07:14:37;;;;;;;;;10.75;9.00;;;;;26.35;31.25;101504.22;5029550;28;45911;-37
2022/07/18 07:17:03;;;;;;;;;12.50;9.00;;;;;26.32;31.79;101494.56;5026389;28;45489;-37
2022/07/18 07:19:28;;;;;;;;;8.75;7.75;;;;;26.32;31.15;101494.56;5038246;28;46730;-37
2022/07/18 07:21:54;;;;;;;;;11.00;7.00;;;;;26.20;30.98;101486.66;5037322;28;45400;-37
2022/07/18 07:24:19;;;;;;;;;7.50;7.00;;;;;26.04;31.23;101490.59;5028440;28;45492;-37
2022/07/18 07:26:44;;;;;;;;;7.00;7.00;;;;;25.90;31.19;101482.78;5040680;28;45545;-37
2022/07/18 07:29:10;;;;;;;;;8.50;8.00;;;;;25.77;30.94;101483.75;5036265;28;74739;-38
2022/07/18 07:31:35;;;;;;;;;7.75;5.00;;;;;25.65;30.73;101483.88;5037092;28;48429;-37
2022/07/18 07:34:01;;;;;;;;;6.25;4.50;;;;;25.54;30.91;101477.53;5038995;28;45425;-37
2022/07/18 07:36:26;;;;;;;;;4.25;2.50;;;;;25.45;31.17;101488.13;5051661;28;69030;-37
2022/07/18 07:38:51;;;;;;;;;4.00;4.00;;;;;25.36;30.87;101484.34;5034445;28;75713;-37
2022/07/18 07:41:17;;;;;;;;;3.75;3.50;;;;;25.27;30.88;101482.34;5035385;28;72514;-38
2022/07/18 07:43:42;;;;;;;;;8.75;5.75;;;;;25.21;30.87;101475.63;5040332;28;45434;-37
2022/07/18 07:46:07;;;;;;;;;4.50;4.00;;;;;25.14;31.10;101471.72;5036310;28;66529;-37
2022/07/18 07:48:33;;;;;;;;;4.50;4.25;;;;;25.08;31.16;101469.50;5034406;28;45929;-37
2022/07/18 07:50:58;;;;;;;;;5.50;3.75;;;;;25.04;32.23;101465.34;5018068;28;45408;-37
2022/07/18 07:53:23;;;;;;;;;7.50;5.00;;;;;25.06;31.98;101460.75;5038426;28;46396;-37
2022/07/18 07:55:49;;;;;;;;;5.00;3.25;;;;;25.02;31.81;101458.31;5028087;28;45477;-37
2022/07/18 07:58:14;;;;;;;;;5.00;4.00;;;;;24.96;31.60;101464.09;5036313;28;69373;-37
2022/07/18 08:00:40;;;;;;;;;4.00;3.25;;;;;24.94;31.40;101457.19;5036080;28;68372;-37
2022/07/18 08:03:07;;;;;;;;;2.75;2.75;;;;;24.91;31.71;101462.75;5031737;28;45333;-37
2022/07/18 08:05:37;;;;;;;;;5.00;3.00;;;;;24.87;31.53;101461.28;5027984;28;45438;-37
2022/07/18 08:08:03;;;;;;;;;5.50;2.00;;;;;24.85;32.16;101460.56;5034689;28;46079;-37
2022/07/18 08:10:29;;;;;;;;;3.50;2.50;;;;;24.85;32.77;101455.22;5035908;28;45455;-37
2022/07/18 08:12:55;;;;;;;;;3.00;3.00;;;;;24.85;32.74;101464.09;5031988;28;45370;-37
2022/07/18 08:15:21;;;;;;;;;3.75;3.00;;;;;24.82;32.48;101461.63;5027786;28;45415;-37
2022/07/18 08:17:47;;;;;;;;;4.75;3.00;;;;;24.82;33.37;101469.66;5029755;28;45486;-37
2022/07/18 08:20:12;;;;;;;;;3.75;2.00;;;;;24.85;32.73;101457.88;5036238;28;45589;-37
2022/07/18 08:23:01;;;;;;;;;7.00;3.25;;;;;24.83;32.91;101447.28;5036049;28;45645;-38
2022/07/18 08:25:27;;;;;;;;;5.25;4.00;;;;;24.80;32.93;101451.03;5029156;28;45364;-37
2022/07/18 08:27:53;;;;;;;;;6.50;5.00;;;;;24.77;32.72;101451.28;5031335;28;46928;-37
2022/07/18 08:30:19;;;;;;;;;4.50;3.25;;;;;24.75;32.75;101450.53;5032692;28;45466;-37
2022/07/18 08:32:44;;;;;;;;;5.50;4.75;;;;;24.76;33.98;101452.25;5037006;28;45548;-37
2022/07/18 08:35:10;;;;;;;;;5.00;4.00;;;;;24.75;33.17;101450.53;5035868;28;45410;-37
2022/07/18 08:37:35;;;;;;;;;4.75;4.00;;;;;24.76;32.99;101446.91;5032205;28;46945;-37
2022/07/18 08:40:01;;;;;;;;;4.50;3.25;;;;;24.75;33.17;101447.84;5033734;28;45538;-37
2022/07/18 08:42:27;;;;;;;;;4.50;3.75;;;;;24.73;32.88;101456.97;5038319;28;45590;-37
2022/07/18 08:44:54;;;;;;;;;2.00;2.00;;;;;24.72;33.63;101455.25;5032727;28;45524;-37
2022/07/18 08:47:20;;;;;;;;;7.25;6.00;;;;;24.74;33.69;101442.63;5035009;28;45375;-37
2022/07/18 08:49:46;;;;;;;;;2.50;2.50;;;;;24.74;33.89;101464.06;5025827;28;45388;-37
2022/07/18 08:52:12;;;;;;;;;4.25;3.25;;;;;24.76;34.32;101462.13;5035979;28;45387;-37
2022/07/18 08:54:37;;;;;;;;;6.50;4.00;;;;;24.76;33.74;101451.41;5014331;28;46883;-37
2022/07/18 08:57:03;;;;;;;;;3.50;3.50;;;;;24.77;33.86;101463.81;5035664;28;46188;-37
2022/07/18 08:59:28;;;;;;;;;4.00;3.00;;;;;24.74;33.44;101461.38;5034830;28;45296;-37
2022/07/18 09:01:53;;;;;;;;;3.00;2.00;;;;;24.69;33.86;101453.69;5037540;28;65989;-37
2022/07/18 09:04:41;;;;;;;;;5.25;3.25;;;;;24.74;34.07;101450.66;5031617;28;46809;-37
2022/07/18 09:07:08;;;;;;;;;5.00;3.25;;;;;24.76;34.89;101457.59;5032616;28;47889;-37
2022/07/18 09:09:35;;;;;;;;;5.75;3.00;;;;;24.81;35.61;101455.44;5032664;28;45798;-37
2022/07/18 09:12:05;;;;;;;;;2.75;2.00;;;;;24.86;35.97;101455.09;5032729;28;45546;-37
2022/07/18 09:14:40;;;;;;;;;4.50;3.00;;;;;24.90;36.29;101455.72;5023887;28;45473;-37
2022/07/18 09:17:10;;;;;;;;;2.00;2.00;;;;;24.95;36.65;101445.50;5046093;28;47358;-37
2022/07/18 09:19:37;;;;;;;;;2.25;1.50;;;;;24.99;36.82;101452.31;5035055;28;45265;-37
2022/07/18 09:22:14;;;;;;;;;2.75;2.00;;;;;25.04;36.75;101450.16;5033690;28;45366;-37
2022/07/18 09:24:56;;;;;;;;;3.25;1.25;;;;;25.10;37.35;101451.50;5034240;28;45462;-37
2022/07/18 09:27:27;;;;;;;;;2.00;2.00;;;;;25.13;37.58;101460.16;5032478;28;45634;-37
2022/07/18 09:30:30;;;;;;;;;7.00;1.50;;;;;25.19;37.39;101461.50;5031066;28;46249;-38
2022/07/18 09:33:04;;;;;;;;;4.75;3.00;;;;;25.23;37.35;101459.44;5029525;28;45570;-37
2022/07/18 09:35:33;;;;;;;;;2.00;2.00;;;;;25.26;37.64;101457.41;5031264;28;45594;-37
2022/07/18 09:38:01;;;;;;;;;3.00;2.25;;;;;25.31;37.13;101467.78;5035642;28;46529;-37
2022/07/18 09:40:31;;;;;;;;;3.25;3.25;;;;;25.35;37.21;101459.34;5034100;28;45358;-37
2022/07/18 09:43:00;;;;;;;;;1.25;0.25;;;;;25.38;37.44;101459.13;5037661;28;45553;-37
2022/07/18 09:45:33;;;;;;;;;3.00;2.25;;;;;25.39;37.00;101454.59;5031107;28;45526;-37
2022/07/18 09:48:10;;;;;;;;;5.50;3.00;;;;;25.45;37.26;101451.47;5033279;28;47358;-37
2022/07/18 09:50:37;;;;;;;;;5.00;2.50;;;;;25.49;37.08;101455.59;5030675;28;45506;-37
2022/07/18 09:53:11;;;;;;;;;2.75;2.75;;;;;25.53;37.01;101457.06;5031223;28;45471;-37
2022/07/18 09:55:44;;;;;;;;;2.00;2.00;;;;;25.57;37.28;101461.22;5030190;28;45512;-37
2022/07/18 09:58:10;;;;;;;;;1.25;1.25;;;;;25.60;36.80;101461.94;5025713;28;46038;-37
2022/07/18 10:00:37;;;;;;;;;6.00;3.00;;;;;25.64;36.65;101455.34;5031210;28;45796;-37
2022/07/18 10:03:04;;;;;;;;;1.75;1.75;;;;;25.68;36.73;101454.16;5032286;28;45445;-37
2022/07/18 10:05:34;;;;;;;;;5.00;4.00;;;;;25.71;36.54;101453.88;5027824;28;45547;-37
2022/07/18 10:08:01;;;;;;;;;5.50;4.00;;;;;25.74;36.58;101453.66;5035117;28;45569;-37
2022/07/18 10:10:28;;;;;;;;;4.75;3.50;;;;;25.79;36.50;101447.94;5033760;28;45851;-37
2022/07/18 10:12:54;;;;;;;;;4.50;4.00;;;;;25.81;36.50;101440.59;5036477;28;45454;-37
2022/07/18 10:15:22;;;;;;;;;5.75;4.75;;;;;25.83;36.41;101444.84;5033202;28;45328;-37
2022/07/18 10:17:47;;;;;;;;;5.75;4.75;;;;;25.86;36.45;101436.56;5035306;28;47383;-36
2022/07/18 10:20:12;;;;;;;;;6.75;6.75;;;;;25.90;36.54;101426.44;5033333;28;57776;-37
2022/07/18 10:22:42;;;;;;;;;9.00;6.00;;;;;25.95;36.40;101432.31;5034402;28;50357;-37
2022/07/18 10:25:10;;;;;;;;;7.00;6.25;;;;;25.99;36.53;101439.13;5026365;28;45573;-37
2022/07/18 10:28:04;;;;;;;;;9.00;8.00;;;;;26.04;36.24;101426.22;5034970;28;45447;-37
2022/07/18 10:30:31;;;;;;;;;14.00;11.00;;;;;26.08;36.04;101421.44;5029861;28;46319;-37
2022/07/18 10:32:56;;;;;;;;;9.75;8.25;;;;;26.11;36.43;101427.41;5033930;28;45506;-37
2022/07/18 10:36:12;;;;;;;;;12.00;10.75;;;;;26.14;36.15;101416.44;5027349;28;45418;-36
2022/07/18 10:38:38;;;;;;;;;9.25;9.25;;;;;26.18;36.18;101416.19;5036590;28;46253;-37
2022/07/18 10:41:12;;;;;;;;;13.75;10.75;;;;;26.21;36.06;101419.47;5029845;28;45876;-36
2022/07/18 10:43:44;;;;;;;;;15.25;13.00;;;;;26.24;36.32;101415.66;5041240;28;45571;-36
2022/07/18 10:46:10;;;;;;;;;16.00;14.25;;;;;26.26;36.13;101419.06;5028918;28;45641;-37
2022/07/18 10:48:35;;;;;;;;;18.50;14.50;;;;;26.28;35.96;101415.31;5034306;28;46998;-37
2022/07/18 10:51:02;;;;;;;;;14.75;12.25;;;;;26.30;36.15;101409.81;5036223;28;45297;-37
2022/07/18 10:54:01;;;;;;;;;23.25;17.00;;;;;26.34;36.09;101413.94;5037758;28;45281;-36
2022/07/18 10:56:35;;;;;;;;;18.75;17.25;;;;;26.37;35.79;101420.91;5040409;28;45666;-36
2022/07/18 10:59:22;;;;;;;;;20.00;16.75;;;;;26.37;35.85;101419.06;5028729;28;46248;-37
2022/07/18 11:01:57;;;;;;;;;20.00;15.75;;;;;26.40;36.18;101412.56;5034857;28;45389;-36
2022/07/18 11:04:34;;;;;;;;;22.50;21.25;;;;;26.41;35.83;101408.91;5039642;28;45466;-36
2022/07/18 11:07:13;;;;;;;;;19.50;17.75;;;;;26.44;36.23;101414.88;5035344;28;45434;-36
2022/07/18 11:09:44;;;;;;;;;23.75;20.25;;;;;26.45;35.95;101411.19;5032342;28;45535;-37
2022/07/18 11:12:31;;;;;;;;;27.25;20.00;;;;;26.49;35.74;101414.50;5051197;28;45344;-37
2022/07/18 11:15:08;;;;;;;;;19.50;17.75;;;;;26.51;35.88;101412.53;5033554;28;45184;-37
2022/07/18 11:17:51;;;;;;;;;20.50;19.00;;;;;26.52;35.83;101409.72;5032511;28;45714;-37
2022/07/18 11:20:38;;;;;;;;;19.00;17.25;;;;;26.54;36.19;101409.56;5034356;28;45429;-37
2022/07/18 11:23:22;;;;;;;;;22.00;18.50;;;;;26.56;35.96;101406.75;5029833;28;46028;-37